Kingsford, Michigan
Current Conditions -  °F | °C
As of 4:54 AM on Tuesday 21 Oct 2014 (Local Time) from KIMT Reporting Station
Overcast Overcast  
Wind Chill: 33°   Ceiling: 2200
Heat Index: 40°   Visibility: 10mi
Dew Point: 34°   Wind: 12mph
Humidity: 79%   Direction: 340°NNW
Pressure: 30.13"   Gusts: NA
Location:  45.79°N, 88.07°W
Report Text: KIMT 210954Z AUTO 34010KT 10SM OVC022 04/01 A3013 RMK AO2 SLP213 T00440011
Loading
Personal Weather Stations






























Interactive Weather Map
Tropical Storm Tracking
New forecast layout! Learn more

10-Day Weather Forecast

Advertisements
Track Severe Weather on mobile